Time;durP1;ratioP1;P1;durP2;ratioP2;P2;SDS_P1;SDS_P2;PMS_P1;PMS_P2;Temp;Humidity;BMP_temperature;BMP_pressure;BME280_temperature;BME280_humidity;BME280_pressure;Samples;Min_cycle;Max_cycle;Signal;HPM_P1;HPM_P2
2023/09/24 00:00:57;;;;;;;9.77;5.47;;;10.30;99.90;;;;;;4994350;28;20091;-86
2023/09/24 00:03:23;;;;;;;10.90;5.57;;;10.20;99.90;;;;;;5005492;28;20022;-86
2023/09/24 00:05:48;;;;;;;10.65;5.65;;;10.20;99.90;;;;;;5014589;28;20022;-86
2023/09/24 00:08:14;;;;;;;11.95;7.07;;;10.20;99.90;;;;;;5011946;28;20529;-86
2023/09/24 00:10:39;;;;;;;8.38;6.03;;;10.20;99.90;;;;;;4994968;28;20418;-86
2023/09/24 00:13:05;;;;;;;9.13;5.88;;;10.10;99.90;;;;;;5011904;28;20084;-86
2023/09/24 00:15:33;;;;;;;10.85;6.05;;;10.10;99.90;;;;;;4995198;28;20113;-87
2023/09/24 00:17:59;;;;;;;12.23;6.35;;;10.10;99.90;;;;;;4993839;28;20438;-86
2023/09/24 00:20:25;;;;;;;10.38;6.57;;;10.10;99.90;;;;;;5010777;28;20068;-86
2023/09/24 00:22:51;;;;;;;7.40;5.43;;;10.00;99.90;;;;;;4996504;28;20441;-86
2023/09/24 00:25:17;;;;;;;13.13;6.88;;;10.00;99.90;;;;;;5010226;28;20034;-86
2023/09/24 00:27:43;;;;;;;13.70;6.80;;;10.10;99.90;;;;;;4989135;28;20093;-86
2023/09/24 00:30:09;;;;;;;11.68;6.72;;;10.00;99.90;;;;;;4994013;28;20376;-86
2023/09/24 00:32:35;;;;;;;11.38;7.07;;;10.00;99.90;;;;;;4994143;28;20121;-86
2023/09/24 00:35:01;;;;;;;10.38;6.82;;;10.00;99.90;;;;;;5010347;28;20037;-86
2023/09/24 00:37:27;;;;;;;13.27;7.15;;;10.00;99.90;;;;;;5011329;28;20061;-87
2023/09/24 00:39:52;;;;;;;13.15;7.30;;;10.00;99.90;;;;;;5007234;28;20062;-86
2023/09/24 00:42:18;;;;;;;11.25;6.78;;;9.90;99.90;;;;;;5009541;28;20085;-87
2023/09/24 00:44:43;;;;;;;14.18;7.78;;;9.90;99.90;;;;;;5010869;28;20031;-86
2023/09/24 00:47:11;;;;;;;18.30;8.38;;;9.90;99.90;;;;;;4996609;28;20105;-86
2023/09/24 00:49:37;;;;;;;15.02;8.65;;;9.90;99.90;;;;;;4994324;28;20046;-87
2023/09/24 00:52:03;;;;;;;16.83;8.45;;;9.90;99.90;;;;;;4995151;28;20104;-87
2023/09/24 00:54:30;;;;;;;14.73;8.32;;;10.00;99.90;;;;;;5010826;28;20544;-87
2023/09/24 00:56:58;;;;;;;15.18;7.57;;;10.00;99.90;;;;;;5010991;28;20493;-86
2023/09/24 00:59:25;;;;;;;13.07;7.13;;;9.90;99.90;;;;;;5010784;28;20482;-86
2023/09/24 01:01:51;;;;;;;17.05;7.63;;;10.00;99.90;;;;;;4994905;28;20022;-86
2023/09/24 01:04:17;;;;;;;12.20;8.07;;;9.90;99.90;;;;;;5010312;28;20027;-86
2023/09/24 01:06:44;;;;;;;14.45;8.02;;;9.90;99.90;;;;;;5010498;28;20026;-85
2023/09/24 01:09:12;;;;;;;17.83;7.70;;;9.80;99.90;;;;;;5009775;28;20378;-87
2023/09/24 01:11:38;;;;;;;11.98;7.18;;;9.80;99.90;;;;;;4993237;28;20085;-86
2023/09/24 01:14:04;;;;;;;11.18;7.28;;;9.80;99.90;;;;;;5010569;28;20030;-86
2023/09/24 01:16:32;;;;;;;14.25;8.27;;;9.80;99.90;;;;;;4994766;28;20340;-86
2023/09/24 01:18:58;;;;;;;12.73;7.47;;;9.80;99.90;;;;;;5010796;28;20069;-85
2023/09/24 01:21:27;;;;;;;14.93;8.07;;;9.80;99.90;;;;;;5010247;28;20568;-86
2023/09/24 01:23:54;;;;;;;12.18;8.07;;;9.80;99.90;;;;;;5010010;28;20026;-86
2023/09/24 01:26:22;;;;;;;12.75;8.18;;;9.80;99.90;;;;;;4993141;28;20125;-86
2023/09/24 01:28:48;;;;;;;13.10;7.75;;;9.80;99.90;;;;;;5006894;28;20061;-86
2023/09/24 01:31:15;;;;;;;15.90;9.38;;;9.80;99.90;;;;;;5004348;28;20450;-86
2023/09/24 01:33:41;;;;;;;15.13;9.52;;;9.80;99.90;;;;;;4994074;28;20027;-86
2023/09/24 01:36:13;;;;;;;13.65;8.20;;;9.80;99.90;;;;;;5009424;28;20033;-86
2023/09/24 01:38:43;;;;;;;14.32;9.10;;;9.80;99.90;;;;;;5008040;28;20038;-86
2023/09/24 01:41:12;;;;;;;13.73;8.25;;;9.70;99.90;;;;;;4991734;28;20045;-86
2023/09/24 01:43:42;;;;;;;16.38;8.38;;;9.70;99.90;;;;;;4993876;28;20031;-86
2023/09/24 01:46:08;;;;;;;18.30;8.20;;;9.70;99.90;;;;;;5010460;28;20034;-85
2023/09/24 01:48:34;;;;;;;11.88;7.93;;;9.60;99.90;;;;;;5009757;28;20027;-85
2023/09/24 01:51:06;;;;;;;14.85;8.18;;;9.70;99.90;;;;;;5009147;28;20042;-85
2023/09/24 01:53:32;;;;;;;13.18;7.47;;;9.60;99.90;;;;;;5001343;28;20026;-85
2023/09/24 01:56:00;;;;;;;14.77;8.32;;;9.60;99.90;;;;;;5009414;28;20125;-85
2023/09/24 01:58:26;;;;;;;16.33;8.20;;;9.60;99.90;;;;;;4994790;28;20391;-85
2023/09/24 02:00:52;;;;;;;13.50;8.10;;;9.60;99.90;;;;;;4994056;28;20038;-86
2023/09/24 02:03:18;;;;;;;12.63;7.95;;;9.50;99.90;;;;;;4986857;28;20026;-85
2023/09/24 02:05:44;;;;;;;19.35;10.00;;;9.50;99.90;;;;;;5009916;28;20053;-85
2023/09/24 02:08:10;;;;;;;18.15;8.45;;;9.50;99.90;;;;;;5008533;28;20529;-85
2023/09/24 02:10:40;;;;;;;13.02;8.23;;;9.50;99.90;;;;;;4988303;28;20038;-85
2023/09/24 02:13:15;;;;;;;20.23;8.10;;;9.40;99.90;;;;;;5009528;28;20027;-86
2023/09/24 02:15:43;;;;;;;15.63;9.40;;;9.40;99.90;;;;;;4992507;28;20050;-85
2023/09/24 02:18:09;;;;;;;16.60;8.00;;;9.40;99.90;;;;;;5009597;28;20034;-85
2023/09/24 02:20:38;;;;;;;16.35;8.48;;;9.40;99.90;;;;;;4992602;28;20037;-84
2023/09/24 02:23:05;;;;;;;15.07;8.88;;;9.30;99.90;;;;;;5007757;28;20041;-86
2023/09/24 02:25:32;;;;;;;13.35;8.77;;;9.30;99.90;;;;;;5007267;28;20062;-85
2023/09/24 02:27:59;;;;;;;12.52;8.90;;;9.30;99.90;;;;;;5000055;28;20046;-85
2023/09/24 02:30:28;;;;;;;16.20;8.80;;;9.30;99.90;;;;;;5007792;28;20060;-85
2023/09/24 02:32:53;;;;;;;16.67;8.95;;;9.30;99.90;;;;;;5009127;28;20414;-86
2023/09/24 02:35:19;;;;;;;18.98;10.23;;;9.20;99.90;;;;;;5009211;28;20114;-85
2023/09/24 02:37:48;;;;;;;11.55;8.93;;;9.30;99.90;;;;;;4990841;28;20058;-85
2023/09/24 02:42:49;;;;;;;16.63;9.65;;;9.20;99.90;;;;;;4987470;28;20426;-85
2023/09/24 02:45:15;;;;;;;20.55;9.93;;;9.20;99.90;;;;;;4991506;28;20042;-85
2023/09/24 02:47:42;;;;;;;14.02;9.63;;;9.20;99.90;;;;;;4991489;28;20030;-85
2023/09/24 02:50:08;;;;;;;14.18;10.10;;;9.20;99.90;;;;;;4991791;28;20041;-86
2023/09/24 02:52:35;;;;;;;16.52;10.00;;;9.20;99.90;;;;;;4991982;28;20046;-86
2023/09/24 02:55:03;;;;;;;16.85;9.75;;;9.20;99.90;;;;;;5005491;28;20105;-86
2023/09/24 02:57:29;;;;;;;16.58;9.70;;;9.20;99.90;;;;;;4987248;28;20023;-86
2023/09/24 02:59:57;;;;;;;13.27;8.63;;;9.20;99.90;;;;;;4991725;28;20510;-86
2023/09/24 03:02:23;;;;;;;21.25;10.85;;;9.20;99.90;;;;;;4992546;28;20081;-87
2023/09/24 03:04:50;;;;;;;17.98;9.43;;;9.20;99.90;;;;;;4993400;28;20022;-86
2023/09/24 03:07:15;;;;;;;15.70;9.95;;;9.20;99.90;;;;;;5008294;28;20467;-87
2023/09/24 03:09:41;;;;;;;20.90;10.18;;;9.10;99.90;;;;;;5004966;28;20027;-86
2023/09/24 03:12:07;;;;;;;14.70;9.73;;;9.20;99.90;;;;;;4999740;28;20114;-86
2023/09/24 03:14:33;;;;;;;20.08;10.45;;;9.10;99.90;;;;;;4993154;28;20073;-87
2023/09/24 03:16:59;;;;;;;17.75;11.27;;;9.10;99.90;;;;;;4991865;28;20109;-86
2023/09/24 03:19:24;;;;;;;18.70;11.15;;;9.10;99.90;;;;;;4991069;28;20034;-87
2023/09/24 03:21:50;;;;;;;20.27;9.48;;;9.10;99.90;;;;;;4985216;28;20410;-86
2023/09/24 03:24:16;;;;;;;16.55;9.57;;;9.10;99.90;;;;;;4981927;28;20415;-86
2023/09/24 03:26:42;;;;;;;13.07;9.82;;;9.10;99.90;;;;;;4989041;28;20033;-86
2023/09/24 03:29:07;;;;;;;15.85;10.73;;;9.00;99.90;;;;;;5006725;28;21765;-86
2023/09/24 03:31:33;;;;;;;16.75;9.70;;;9.00;99.90;;;;;;5006734;28;20384;-87
2023/09/24 03:33:59;;;;;;;23.75;11.32;;;8.90;99.90;;;;;;4991915;28;20033;-87
2023/09/24 03:36:25;;;;;;;16.08;9.98;;;8.90;99.90;;;;;;4996160;28;20118;-86
2023/09/24 03:38:50;;;;;;;19.20;10.20;;;8.90;99.90;;;;;;4996925;28;20038;-87
2023/09/24 03:41:16;;;;;;;16.90;10.07;;;8.90;99.90;;;;;;5012693;28;20027;-87
2023/09/24 03:43:42;;;;;;;17.60;10.57;;;8.90;99.90;;;;;;5012432;28;20022;-87
2023/09/24 03:46:09;;;;;;;17.42;10.55;;;8.90;99.90;;;;;;4989953;28;20030;-87
2023/09/24 03:48:35;;;;;;;17.08;10.10;;;8.80;99.90;;;;;;5010946;28;20109;-87
2023/09/24 03:51:00;;;;;;;18.45;10.93;;;8.90;99.90;;;;;;4994379;28;20125;-87
2023/09/24 03:53:26;;;;;;;18.63;11.02;;;8.90;99.90;;;;;;4995664;28;20038;-87
2023/09/24 03:55:53;;;;;;;19.23;10.80;;;8.80;99.90;;;;;;5010543;28;20041;-87
2023/09/24 03:58:18;;;;;;;14.95;10.45;;;8.90;99.90;;;;;;5010912;28;20026;-87
2023/09/24 04:00:44;;;;;;;16.80;11.38;;;8.80;99.90;;;;;;4990787;28;20042;-87
2023/09/24 04:03:09;;;;;;;20.50;12.05;;;8.80;99.90;;;;;;5008248;28;20032;-87
2023/09/24 04:05:35;;;;;;;16.90;10.98;;;8.80;99.90;;;;;;4995599;28;20036;-88
2023/09/24 04:08:03;;;;;;;18.83;10.40;;;8.80;99.90;;;;;;5011532;28;20022;-87
2023/09/24 04:10:29;;;;;;;20.80;11.18;;;8.80;99.90;;;;;;5008073;28;20030;-88
2023/09/24 04:12:57;;;;;;;18.63;10.13;;;8.70;99.90;;;;;;5006215;28;20129;-87
2023/09/24 04:15:27;;;;;;;21.23;10.75;;;8.70;99.90;;;;;;5010999;28;20033;-87
2023/09/24 04:17:55;;;;;;;13.65;10.13;;;8.70;99.90;;;;;;5006562;28;20057;-87
2023/09/24 04:20:21;;;;;;;22.35;11.73;;;8.70;99.90;;;;;;4994700;28;20037;-87
2023/09/24 04:22:47;;;;;;;16.23;9.85;;;8.70;99.90;;;;;;5010387;28;20027;-88
2023/09/24 04:25:20;;;;;;;22.52;12.43;;;8.60;99.90;;;;;;5011366;28;20495;-87
2023/09/24 04:27:46;;;;;;;18.13;11.68;;;8.60;99.90;;;;;;5010446;28;20030;-88
2023/09/24 04:30:17;;;;;;;16.60;11.05;;;8.60;99.90;;;;;;5010350;28;20037;-88
2023/09/24 04:32:47;;;;;;;22.55;13.05;;;8.60;99.90;;;;;;5008595;28;20034;-88
2023/09/24 04:35:12;;;;;;;18.23;10.63;;;8.60;99.90;;;;;;5005285;28;20454;-87
2023/09/24 04:37:41;;;;;;;17.55;10.98;;;8.60;99.90;;;;;;5010814;28;20034;-88
2023/09/24 04:40:16;;;;;;;17.35;10.75;;;8.60;99.90;;;;;;4991887;28;20065;-87
2023/09/24 04:42:43;;;;;;;18.75;10.90;;;8.60;99.90;;;;;;4991699;28;20022;-87
2023/09/24 04:45:13;;;;;;;16.83;11.18;;;8.60;99.90;;;;;;5008953;28;20031;-87
2023/09/24 04:47:42;;;;;;;21.15;11.75;;;8.60;99.90;;;;;;4993142;28;20026;-88
2023/09/24 04:50:12;;;;;;;21.42;11.60;;;8.60;99.90;;;;;;5007092;28;20043;-88
2023/09/24 04:52:38;;;;;;;16.20;11.15;;;8.60;99.90;;;;;;4987667;28;20502;-87
2023/09/24 04:55:05;;;;;;;17.67;11.35;;;8.50;99.90;;;;;;5007274;28;20035;-87
2023/09/24 04:57:31;;;;;;;20.40;11.15;;;8.50;99.90;;;;;;5008366;28;20019;-88
2023/09/24 04:59:57;;;;;;;18.50;11.30;;;8.50;99.90;;;;;;4993748;28;20038;-87
2023/09/24 05:02:23;;;;;;;16.65;10.02;;;8.50;99.90;;;;;;5008722;28;20047;-87
2023/09/24 05:04:49;;;;;;;17.83;10.35;;;8.40;99.90;;;;;;5011159;28;20475;-87
2023/09/24 05:07:15;;;;;;;17.40;10.60;;;8.40;99.90;;;;;;5007962;28;20022;-87
2023/09/24 05:09:41;;;;;;;17.10;11.15;;;8.40;99.90;;;;;;5009455;28;20117;-87
2023/09/24 05:12:06;;;;;;;16.65;10.48;;;8.40;99.90;;;;;;5010169;28;20081;-87
2023/09/24 05:14:32;;;;;;;20.30;10.27;;;8.40;99.90;;;;;;4995705;28;20030;-88
2023/09/24 05:16:58;;;;;;;14.75;9.98;;;8.40;99.90;;;;;;5008382;28;20403;-87
2023/09/24 05:19:24;;;;;;;23.42;11.07;;;8.40;99.90;;;;;;5008832;28;20070;-87
2023/09/24 05:21:49;;;;;;;15.30;9.80;;;8.40;99.90;;;;;;4994786;28;20065;-87
2023/09/24 05:24:15;;;;;;;18.92;10.95;;;8.30;99.90;;;;;;4992855;28;20450;-86
2023/09/24 05:26:40;;;;;;;16.48;10.55;;;8.30;99.90;;;;;;5008761;28;20025;-87
2023/09/24 05:29:06;;;;;;;19.33;10.50;;;8.30;99.90;;;;;;5007085;28;20019;-87
2023/09/24 05:31:32;;;;;;;21.40;10.68;;;8.30;99.90;;;;;;5007592;28;20022;-87
2023/09/24 05:33:57;;;;;;;20.38;10.60;;;8.30;99.90;;;;;;4994090;28;20478;-87
2023/09/24 05:36:23;;;;;;;22.52;10.80;;;8.30;99.90;;;;;;5007026;28;20041;-87
2023/09/24 05:38:49;;;;;;;19.00;11.30;;;8.30;99.90;;;;;;5009136;28;20034;-88
2023/09/24 05:41:16;;;;;;;17.38;10.82;;;8.30;99.90;;;;;;5005730;28;20406;-87
2023/09/24 05:43:44;;;;;;;18.83;11.02;;;8.30;99.90;;;;;;4985246;28;20448;-87
2023/09/24 05:46:11;;;;;;;21.85;10.20;;;8.30;99.90;;;;;;5008012;28;20030;-87
2023/09/24 05:48:37;;;;;;;15.57;10.70;;;8.30;99.90;;;;;;5007459;28;20027;-86
2023/09/24 05:51:04;;;;;;;21.05;10.50;;;8.30;99.90;;;;;;4990406;28;20049;-87
2023/09/24 05:53:29;;;;;;;18.33;10.85;;;8.30;99.90;;;;;;4986010;28;20041;-87
2023/09/24 05:55:56;;;;;;;21.52;11.38;;;8.40;99.90;;;;;;4994334;28;20035;-88
2023/09/24 05:58:22;;;;;;;18.05;10.20;;;8.40;99.90;;;;;;5006183;28;20018;-88
2023/09/24 06:00:48;;;;;;;20.40;11.05;;;8.50;99.90;;;;;;4987875;28;20470;-88
2023/09/24 06:03:14;;;;;;;19.67;10.57;;;8.50;99.90;;;;;;5008267;28;20031;-87
2023/09/24 06:05:43;;;;;;;16.77;9.10;;;8.60;99.90;;;;;;5003274;28;20667;-88
2023/09/24 06:08:09;;;;;;;17.85;10.40;;;8.70;99.90;;;;;;4989516;28;20034;-89
2023/09/24 06:10:35;;;;;;;16.63;10.55;;;8.70;99.90;;;;;;5004561;28;20084;-88
2023/09/24 06:13:04;;;;;;;14.43;9.35;;;8.80;99.90;;;;;;5007501;28;20030;-87
2023/09/24 06:15:32;;;;;;;23.60;9.60;;;8.90;99.90;;;;;;4986825;28;20030;-87
2023/09/24 06:17:59;;;;;;;16.17;10.50;;;8.90;99.90;;;;;;4990434;28;20403;-87
2023/09/24 06:20:25;;;;;;;16.48;9.63;;;9.00;99.90;;;;;;4986135;28;20039;-88
2023/09/24 06:22:53;;;;;;;17.50;9.48;;;9.10;99.90;;;;;;4982496;28;20027;-88
2023/09/24 06:25:19;;;;;;;15.55;9.32;;;9.20;99.90;;;;;;5001595;28;20038;-88
2023/09/24 06:27:45;;;;;;;14.10;9.60;;;9.40;99.90;;;;;;4989303;28;20030;-88
2023/09/24 06:30:11;;;;;;;16.75;8.82;;;9.40;99.90;;;;;;4990221;28;20030;-89
2023/09/24 06:32:37;;;;;;;12.55;8.50;;;9.60;99.90;;;;;;5001940;28;20243;-88
2023/09/24 06:35:03;;;;;;;14.23;8.65;;;9.60;99.90;;;;;;4988120;28;20113;-88
2023/09/24 06:37:30;;;;;;;12.00;8.13;;;9.80;99.90;;;;;;4992497;28;20022;-88
2023/09/24 06:39:56;;;;;;;14.23;8.55;;;9.90;99.90;;;;;;5007732;28;20038;-87
2023/09/24 06:42:22;;;;;;;20.05;8.90;;;10.00;99.90;;;;;;5002585;28;20022;-88
2023/09/24 06:44:49;;;;;;;14.88;8.52;;;10.10;99.90;;;;;;5009754;28;20426;-88
2023/09/24 06:47:14;;;;;;;13.93;9.05;;;10.10;99.90;;;;;;5007292;28;20570;-88
2023/09/24 06:49:40;;;;;;;13.80;7.78;;;10.20;99.90;;;;;;5008790;28;20113;-88
2023/09/24 06:52:05;;;;;;;14.40;8.65;;;10.30;99.90;;;;;;4991939;28;20048;-89
2023/09/24 06:54:38;;;;;;;12.77;8.00;;;10.30;99.90;;;;;;4993326;28;20034;-88
2023/09/24 06:57:07;;;;;;;18.42;8.93;;;10.40;99.90;;;;;;4991366;28;20084;-87
2023/09/24 06:59:33;;;;;;;14.57;9.48;;;10.40;99.90;;;;;;4992063;28;20030;-92
2023/09/24 07:01:58;;;;;;;16.23;9.18;;;10.40;99.90;;;;;;5005443;28;20037;-89
2023/09/24 07:04:24;;;;;;;18.95;8.80;;;10.50;99.90;;;;;;4993242;28;20030;-87
2023/09/24 07:06:53;;;;;;;17.10;9.13;;;10.50;99.90;;;;;;4990870;28;20080;-88
2023/09/24 07:09:19;;;;;;;18.60;9.98;;;10.50;99.90;;;;;;5007463;28;20027;-88
2023/09/24 07:11:45;;;;;;;17.65;10.73;;;10.50;99.90;;;;;;5007817;28;20396;-88
2023/09/24 07:14:10;;;;;;;14.68;9.50;;;10.50;99.90;;;;;;4991267;28;20104;-88
2023/09/24 07:16:36;;;;;;;18.48;10.50;;;10.60;99.90;;;;;;4990540;28;20117;-88
2023/09/24 07:19:01;;;;;;;12.57;9.07;;;10.60;99.90;;;;;;4997859;28;20027;-89
2023/09/24 07:21:28;;;;;;;15.90;10.13;;;10.60;99.90;;;;;;4986840;28;20038;-88
2023/09/24 07:23:58;;;;;;;11.38;9.10;;;10.70;99.90;;;;;;5002138;28;20073;-88
2023/09/24 07:26:24;;;;;;;16.02;8.65;;;10.70;99.90;;;;;;4991033;28;20081;-88
2023/09/24 07:28:50;;;;;;;12.68;8.60;;;10.70;99.90;;;;;;5008482;28;20034;-88
2023/09/24 07:31:19;;;;;;;16.00;9.45;;;10.80;99.90;;;;;;4992487;28;20058;-88
2023/09/24 07:33:46;;;;;;;13.88;8.05;;;10.90;99.90;;;;;;5003981;28;20360;-88
2023/09/24 07:36:12;;;;;;;15.20;9.50;;;11.00;99.90;;;;;;4990440;28;20038;-87
2023/09/24 07:38:40;;;;;;;13.15;8.02;;;11.20;99.90;;;;;;5008050;28;20030;-88
2023/09/24 07:41:07;;;;;;;14.70;7.82;;;11.30;99.90;;;;;;5009064;28;20060;-88
2023/09/24 07:43:34;;;;;;;19.67;8.95;;;11.30;99.90;;;;;;5018503;28;20113;-89
2023/09/24 07:45:59;;;;;;;10.25;6.95;;;11.50;99.90;;;;;;5007718;28;20038;-87
2023/09/24 07:48:25;;;;;;;12.05;7.60;;;11.60;99.90;;;;;;5004119;28;20503;-88
2023/09/24 07:50:55;;;;;;;11.48;7.82;;;11.70;99.90;;;;;;4991741;28;20177;-87
2023/09/24 07:53:22;;;;;;;17.77;8.00;;;11.80;99.90;;;;;;5008405;28;20391;-86
2023/09/24 07:55:53;;;;;;;12.18;7.43;;;12.00;99.90;;;;;;4994019;28;20035;-87
2023/09/24 07:58:19;;;;;;;10.77;6.13;;;12.10;99.90;;;;;;5016533;28;20086;-87
2023/09/24 08:00:44;;;;;;;10.98;7.45;;;12.20;99.90;;;;;;4992023;28;20618;-87
2023/09/24 08:03:10;;;;;;;10.13;5.90;;;12.30;99.90;;;;;;4995971;28;20026;-87
2023/09/24 08:05:35;;;;;;;10.93;6.88;;;12.40;99.90;;;;;;5008061;28;20027;-88
2023/09/24 08:08:01;;;;;;;10.45;6.22;;;12.50;99.90;;;;;;5005120;28;20037;-87
2023/09/24 08:10:26;;;;;;;12.13;6.75;;;12.60;99.90;;;;;;4992021;28;20034;-87
2023/09/24 08:12:52;;;;;;;11.32;7.13;;;12.70;99.90;;;;;;4992286;28;20027;-88
2023/09/24 08:15:17;;;;;;;10.07;6.05;;;12.90;99.90;;;;;;4991937;28;20030;-87
2023/09/24 08:17:43;;;;;;;8.52;5.63;;;12.90;99.90;;;;;;4991294;28;20041;-88
2023/09/24 08:20:09;;;;;;;9.18;5.38;;;13.10;99.90;;;;;;4991053;28;20517;-87
2023/09/24 08:22:35;;;;;;;9.70;5.35;;;13.20;99.90;;;;;;5000783;28;20018;-88
2023/09/24 08:25:00;;;;;;;9.38;5.97;;;13.20;99.90;;;;;;5013042;28;20101;-87
2023/09/24 08:27:26;;;;;;;9.98;6.70;;;13.40;99.90;;;;;;5011877;28;20376;-88
2023/09/24 08:29:55;;;;;;;11.15;5.95;;;13.40;99.90;;;;;;4995375;28;20073;-87
2023/09/24 08:32:20;;;;;;;7.30;5.70;;;13.50;99.90;;;;;;5011653;28;20026;-88
2023/09/24 08:34:46;;;;;;;10.68;6.18;;;13.60;99.90;;;;;;4985750;28;20046;-88
2023/09/24 08:37:11;;;;;;;10.95;6.03;;;13.70;99.90;;;;;;4995103;28;20080;-87
2023/09/24 08:39:37;;;;;;;8.82;4.82;;;13.80;99.90;;;;;;4995556;28;20101;-87
2023/09/24 08:42:02;;;;;;;9.15;5.68;;;13.90;99.90;;;;;;5011154;28;20402;-86
2023/09/24 08:44:29;;;;;;;10.18;5.03;;;14.00;99.90;;;;;;5009466;28;20112;-86
2023/09/24 08:46:55;;;;;;;9.65;5.55;;;14.20;99.90;;;;;;4995123;28;20089;-87
2023/09/24 08:49:21;;;;;;;8.00;4.75;;;14.30;99.90;;;;;;5008108;28;20054;-88
2023/09/24 08:51:47;;;;;;;10.98;5.22;;;14.50;99.90;;;;;;4993550;28;20410;-87
2023/09/24 08:54:13;;;;;;;8.80;3.90;;;14.60;99.90;;;;;;4991425;28;20038;-88
2023/09/24 08:56:39;;;;;;;9.07;4.50;;;14.70;99.90;;;;;;5003322;28;20554;-87
2023/09/24 08:59:05;;;;;;;8.05;4.30;;;14.80;99.90;;;;;;5009155;28;20129;-87
2023/09/24 09:01:31;;;;;;;10.55;5.20;;;14.90;99.90;;;;;;4991606;28;20018;-87
2023/09/24 09:03:58;;;;;;;8.27;4.22;;;14.90;99.90;;;;;;4995307;28;20391;-87
2023/09/24 09:06:34;;;;;;;9.70;4.25;;;15.10;99.90;;;;;;4994603;28;20113;-87
2023/09/24 09:09:01;;;;;;;11.38;3.70;;;15.20;99.90;;;;;;5010502;28;20089;-86
2023/09/24 09:11:46;;;;;;;7.10;3.08;;;15.20;99.90;;;;;;5010640;28;20119;-87
2023/09/24 09:14:12;;;;;;;6.78;2.95;;;15.30;99.90;;;;;;4982963;28;20036;-88
2023/09/24 09:16:57;;;;;;;7.72;3.13;;;15.50;99.90;;;;;;4994621;28;20030;-87
2023/09/24 09:19:27;;;;;;;5.22;2.65;;;15.60;99.90;;;;;;4996169;28;20490;-87
2023/09/24 09:21:53;;;;;;;10.25;2.80;;;15.70;99.90;;;;;;5004330;28;20037;-87
2023/09/24 09:24:23;;;;;;;6.07;2.60;;;15.70;99.90;;;;;;4993063;28;20026;-87
2023/09/24 09:26:56;;;;;;;7.65;2.30;;;15.80;99.90;;;;;;5010156;28;20105;-87
2023/09/24 09:29:27;;;;;;;7.38;2.10;;;15.90;99.90;;;;;;5006781;28;20483;-87
2023/09/24 09:31:54;;;;;;;8.00;1.98;;;16.00;99.90;;;;;;5002286;28;20430;-87
2023/09/24 09:34:20;;;;;;;7.05;1.85;;;16.00;99.90;;;;;;4993050;28;20034;-86
2023/09/24 09:36:46;;;;;;;4.10;1.90;;;16.10;99.90;;;;;;4998816;28;20023;-87
2023/09/24 09:39:12;;;;;;;10.20;1.90;;;16.20;99.90;;;;;;4998674;28;20037;-87
2023/09/24 09:41:42;;;;;;;6.65;1.83;;;16.20;99.90;;;;;;4990690;28;20062;-88
2023/09/24 09:44:08;;;;;;;4.97;1.73;;;16.30;99.90;;;;;;5008781;28;20033;-87
2023/09/24 09:46:36;;;;;;;5.43;1.48;;;16.40;99.90;;;;;;4992581;28;20030;-87
2023/09/24 09:49:06;;;;;;;7.25;2.03;;;16.50;99.90;;;;;;4987920;28;20026;-86
2023/09/24 09:51:48;;;;;;;3.65;1.45;;;16.50;99.90;;;;;;5003454;28;20053;-87
2023/09/24 09:54:15;;;;;;;5.25;1.27;;;16.60;99.90;;;;;;4985320;28;20038;-87
2023/09/24 09:56:41;;;;;;;4.15;0.98;;;16.70;99.90;;;;;;4982643;28;20034;-87
2023/09/24 09:59:08;;;;;;;8.55;1.17;;;16.70;99.90;;;;;;4986014;28;20034;-87
2023/09/24 10:01:34;;;;;;;3.10;0.70;;;16.80;99.90;;;;;;5014033;28;20050;-87
2023/09/24 10:04:08;;;;;;;5.40;1.30;;;16.80;99.90;;;;;;5009177;28;20077;-86
2023/09/24 10:06:37;;;;;;;4.53;1.02;;;16.90;99.90;;;;;;4999211;28;20359;-86
2023/09/24 10:09:26;;;;;;;6.25;0.88;;;17.00;99.90;;;;;;4991256;28;20049;-87
2023/09/24 10:11:52;;;;;;;4.22;0.70;;;17.00;99.90;;;;;;4989139;28;20126;-86
2023/09/24 10:14:39;;;;;;;4.07;0.80;;;17.10;99.90;;;;;;5007447;28;20121;-86
2023/09/24 10:17:16;;;;;;;4.40;0.80;;;17.20;99.90;;;;;;5008462;28;20027;-86
2023/09/24 10:19:50;;;;;;;1.50;0.60;;;17.30;99.90;;;;;;4999271;28;20042;-86
2023/09/24 10:22:26;;;;;;;4.38;0.45;;;17.30;99.90;;;;;;4994200;28;20038;-86
2023/09/24 10:24:51;;;;;;;4.05;0.70;;;17.40;99.90;;;;;;4987592;28;20023;-86
2023/09/24 10:27:24;;;;;;;2.58;0.50;;;17.40;99.90;;;;;;5004382;28;20037;-87
2023/09/24 10:29:50;;;;;;;3.22;0.93;;;17.50;99.90;;;;;;5007188;28;20061;-86
2023/09/24 10:32:22;;;;;;;3.78;0.50;;;17.50;99.90;;;;;;5008611;28;20026;-86
2023/09/24 10:34:51;;;;;;;4.93;0.68;;;17.50;99.90;;;;;;5006777;28;20486;-86
2023/09/24 10:37:21;;;;;;;2.90;0.47;;;17.60;99.90;;;;;;5007775;28;20411;-86
2023/09/24 10:40:04;;;;;;;3.70;0.47;;;17.70;99.90;;;;;;5007983;28;20532;-86
2023/09/24 10:42:38;;;;;;;3.50;0.70;;;17.80;99.90;;;;;;5007871;28;20474;-86
2023/09/24 10:45:07;;;;;;;2.85;0.57;;;17.90;99.90;;;;;;4988665;28;20041;-87
2023/09/24 10:47:43;;;;;;;4.32;0.43;;;18.00;99.90;;;;;;5004760;28;20026;-87
2023/09/24 10:50:20;;;;;;;5.22;0.52;;;18.00;99.90;;;;;;5005529;28;20038;-86
2023/09/24 10:52:48;;;;;;;5.32;0.50;;;18.10;99.90;;;;;;5007954;28;20138;-86
2023/09/24 10:55:15;;;;;;;2.83;0.38;;;18.10;99.90;;;;;;5007476;28;20022;-87
2023/09/24 10:57:50;;;;;;;4.40;0.95;;;18.10;99.90;;;;;;4988178;28;20098;-87
2023/09/24 11:00:17;;;;;;;2.95;0.35;;;18.30;99.90;;;;;;5003970;28;20543;-88
2023/09/24 11:02:43;;;;;;;2.83;0.40;;;18.20;99.90;;;;;;4992445;28;20479;-87
2023/09/24 11:05:09;;;;;;;5.38;0.40;;;18.30;99.90;;;;;;4989828;28;20054;-86
2023/09/24 11:07:35;;;;;;;1.20;0.40;;;18.30;99.90;;;;;;5008298;28;20037;-87
2023/09/24 11:10:01;;;;;;;6.68;0.63;;;18.40;99.90;;;;;;5005789;28;20099;-87
2023/09/24 11:12:26;;;;;;;1.85;0.30;;;18.40;99.90;;;;;;5004128;28;20041;-88
2023/09/24 11:14:58;;;;;;;4.65;0.47;;;18.50;99.90;;;;;;4993420;28;20383;-89
2023/09/24 11:17:25;;;;;;;3.50;0.40;;;18.50;99.90;;;;;;4992686;28;20490;-88
2023/09/24 11:19:50;;;;;;;2.83;0.38;;;18.60;99.90;;;;;;5008117;28;20046;-88
2023/09/24 11:22:20;;;;;;;2.53;0.63;;;18.60;99.90;;;;;;5009367;28;20418;-87
2023/09/24 11:24:50;;;;;;;2.80;0.50;;;18.70;99.90;;;;;;4990524;28;20038;-87
2023/09/24 11:27:17;;;;;;;3.30;0.45;;;18.70;99.90;;;;;;4988480;28;20019;-87
2023/09/24 11:29:58;;;;;;;3.08;0.40;;;18.80;99.90;;;;;;5005774;28;20112;-88
2023/09/24 11:32:26;;;;;;;2.73;0.37;;;18.90;99.90;;;;;;5002690;28;20072;-87
2023/09/24 11:35:05;;;;;;;2.35;0.50;;;19.00;99.90;;;;;;4992949;28;20033;-86
2023/09/24 11:37:49;;;;;;;1.88;0.30;;;19.10;99.90;;;;;;4978088;28;20478;-86
2023/09/24 11:40:29;;;;;;;4.32;0.50;;;19.20;99.90;;;;;;4990748;28;20483;-87
2023/09/24 11:43:00;;;;;;;1.92;0.30;;;19.20;99.90;;;;;;5000841;28;20130;-88
2023/09/24 11:45:46;;;;;;;1.85;0.40;;;19.20;99.90;;;;;;5005230;28;20029;-86
2023/09/24 11:48:26;;;;;;;2.47;0.50;;;19.30;99.90;;;;;;5005700;28;20093;-87
2023/09/24 11:51:02;;;;;;;4.38;0.40;;;19.30;99.90;;;;;;4987831;28;20386;-86
2023/09/24 11:53:27;;;;;;;2.38;0.40;;;19.30;99.90;;;;;;5006795;28;20157;-86
2023/09/24 11:55:58;;;;;;;4.40;0.77;;;19.20;99.90;;;;;;4995120;28;20109;-86
2023/09/24 11:58:28;;;;;;;3.05;0.35;;;19.20;99.90;;;;;;4995069;28;20121;-88
2023/09/24 12:00:55;;;;;;;2.28;0.30;;;19.20;99.90;;;;;;5011501;28;20038;-87
2023/09/24 12:03:21;;;;;;;2.00;0.40;;;19.40;99.90;;;;;;5006436;28;20114;-87
2023/09/24 12:05:47;;;;;;;2.13;0.30;;;19.50;99.90;;;;;;4991052;28;20097;-85
2023/09/24 12:08:13;;;;;;;1.98;0.40;;;19.60;99.90;;;;;;4993132;28;20534;-89
2023/09/24 12:10:41;;;;;;;1.60;0.60;;;19.60;99.90;;;;;;5009431;28;20122;-88
2023/09/24 12:13:08;;;;;;;2.65;0.40;;;19.80;99.90;;;;;;4979124;28;20049;-89
2023/09/24 12:15:34;;;;;;;2.53;0.40;;;19.90;99.90;;;;;;5011523;28;20030;-88
2023/09/24 12:18:04;;;;;;;3.40;0.40;;;19.90;99.90;;;;;;5011867;28;20449;-88
2023/09/24 12:20:31;;;;;;;3.72;0.50;;;20.00;99.90;;;;;;5011120;28;20050;-87
2023/09/24 12:22:59;;;;;;;1.77;0.38;;;20.00;99.90;;;;;;5007623;28;20498;-87
2023/09/24 12:25:24;;;;;;;2.42;0.43;;;20.00;99.90;;;;;;4983183;28;20105;-88
2023/09/24 12:27:50;;;;;;;1.45;0.30;;;20.00;99.90;;;;;;5011392;28;20114;-88
2023/09/24 12:30:15;;;;;;;3.20;0.30;;;20.10;99.90;;;;;;5011540;28;20093;-87
2023/09/24 12:32:42;;;;;;;2.15;0.40;;;20.20;99.90;;;;;;5005106;28;20033;-87
2023/09/24 12:35:09;;;;;;;2.47;0.40;;;20.20;99.90;;;;;;4995453;28;20022;-87
2023/09/24 12:37:35;;;;;;;4.78;0.40;;;20.30;99.90;;;;;;4995142;28;20487;-87
2023/09/24 12:40:07;;;;;;;3.83;0.40;;;20.30;99.90;;;;;;5011625;28;20034;-86
2023/09/24 12:42:34;;;;;;;2.65;0.32;;;20.30;99.90;;;;;;5011293;28;20534;-87
2023/09/24 12:45:00;;;;;;;2.42;0.40;;;20.30;99.90;;;;;;4995208;28;20072;-87
2023/09/24 12:47:28;;;;;;;3.05;0.40;;;20.30;99.90;;;;;;5007447;28;20054;-87